Time;durP1;ratioP1;P1;durP2;ratioP2;P2;SDS_P1;SDS_P2;PMS_P1;PMS_P2;Temp;Humidity;BMP_temperature;BMP_pressure;BME280_temperature;BME280_humidity;BME280_pressure;Samples;Min_cycle;Max_cycle;Signal;HPM_P1;HPM_P2
2022/10/22 00:01:52;;;;;;;;;;;15.50;99.90;;;;;;5029801;28;19913;-84
2022/10/22 00:04:17;;;;;;;;;;;15.50;99.90;;;;;;5029682;28;19913;-86
2022/10/22 00:06:43;;;;;;;;;;;15.30;99.90;;;;;;5029527;28;20515;-86
2022/10/22 00:09:10;;;;;;;;;;;15.30;99.90;;;;;;5029563;28;20481;-84
2022/10/22 00:11:35;;;;;;;;;;;15.50;99.90;;;;;;5029393;28;19971;-84
2022/10/22 00:14:01;;;;;;;;;;;15.30;99.90;;;;;;5047760;28;19952;-85
2022/10/22 00:16:26;;;;;;;;;;;15.40;99.90;;;;;;5029705;28;19944;-85
2022/10/22 00:18:52;;;;;;;;;;;15.40;99.90;;;;;;5029461;28;20455;-85
2022/10/22 00:21:18;;;;;;;;;;;15.20;99.90;;;;;;5047112;28;20016;-84
2022/10/22 00:23:43;;;;;;;;;;;15.20;99.90;;;;;;5046727;28;19913;-85
2022/10/22 00:26:09;;;;;;;;;;;15.20;99.90;;;;;;5046665;28;19994;-85
2022/10/22 00:28:35;;;;;;;;;;;15.10;99.90;;;;;;5028728;28;19913;-85
2022/10/22 00:31:01;;;;;;;;;;;15.10;99.90;;;;;;5029353;28;20742;-85
2022/10/22 00:33:29;;;;;;;;;;;15.00;99.90;;;;;;5056251;28;19917;-85
2022/10/22 00:35:57;;;;;;;;;;;14.80;99.90;;;;;;5043365;28;20732;-85
2022/10/22 00:38:23;;;;;;;;;;;14.80;99.90;;;;;;5022335;28;19924;-85
2022/10/22 00:40:48;;;;;;;;;;;14.90;99.90;;;;;;5028892;28;19917;-86
2022/10/22 00:43:16;;;;;;;;;;;14.90;99.90;;;;;;5046965;28;19920;-83
2022/10/22 00:45:42;;;;;;;;;;;14.90;99.90;;;;;;5047476;28;19919;-83
2022/10/22 00:48:11;;;;;;;;;;;14.90;99.90;;;;;;5046937;28;19913;-83
2022/10/22 00:50:40;;;;;;;;;;;15.00;99.90;;;;;;5036106;28;19913;-83
2022/10/22 00:53:09;;;;;;;;;;;14.90;99.90;;;;;;5046944;28;19917;-83
2022/10/22 00:55:34;;;;;;;;;;;14.90;99.90;;;;;;5036837;28;20367;-84
2022/10/22 00:58:01;;;;;;;;;;;14.90;99.90;;;;;;5028957;28;19924;-83
2022/10/22 01:00:26;;;;;;;;;;;14.70;99.90;;;;;;5050728;28;20388;-83
2022/10/22 01:02:52;;;;;;;;;;;14.70;99.90;;;;;;5030223;28;20001;-83
2022/10/22 01:05:18;;;;;;;;;;;14.60;99.90;;;;;;5050494;28;19947;-83
2022/10/22 01:07:46;;;;;;;;;;;14.50;99.90;;;;;;5050056;28;19921;-83
2022/10/22 01:10:15;;;;;;;;;;;14.40;99.90;;;;;;5049951;28;19913;-82
2022/10/22 01:12:55;;;;;;;;;;;14.50;99.90;;;;;;5049719;28;20333;-83
2022/10/22 01:15:30;;;;;;;;;;;14.50;99.90;;;;;;5045601;28;20447;-83
2022/10/22 01:18:01;;;;;;;;;;;14.50;99.90;;;;;;5046474;28;19921;-83
2022/10/22 01:20:46;;;;;;;;;;;14.50;99.90;;;;;;5050463;28;19912;-83
2022/10/22 01:23:30;;;;;;;;;;;14.50;99.90;;;;;;5032056;28;19983;-83
2022/10/22 01:26:08;;;;;;;;;;;14.50;99.90;;;;;;5043505;28;19958;-83
2022/10/22 01:28:52;;;;;;;;;;;14.50;99.90;;;;;;5035643;28;19991;-83
2022/10/22 01:31:20;;;;;;;;;;;14.50;99.90;;;;;;5049832;28;19939;-83
2022/10/22 01:33:47;;;;;;;;;;;14.40;99.90;;;;;;5049527;28;20447;-82
2022/10/22 01:36:14;;;;;;;;;;;14.40;99.90;;;;;;5043838;28;19921;-82
2022/10/22 01:38:40;;;;;;;;;;;14.40;99.90;;;;;;5053673;28;19921;-82
2022/10/22 01:41:06;;;;;;;;;;;14.40;99.90;;;;;;5048656;28;19913;-84
2022/10/22 01:43:31;;;;;;;;;;;14.40;99.90;;;;;;5030932;28;20455;-83
2022/10/22 01:45:58;;;;;;;;;;;14.40;99.90;;;;;;5031256;28;19912;-85
2022/10/22 01:48:30;;;;;;;;;;;14.30;99.90;;;;;;5031192;28;19913;-84
2022/10/22 01:51:08;;;;;;;;;;;14.30;99.90;;;;;;5049294;28;19923;-86
2022/10/22 01:53:43;;;;;;;;;;;14.30;99.90;;;;;;5030564;28;20004;-84
2022/10/22 01:56:45;;;;;;;;;;;14.30;99.90;;;;;;5048907;28;19924;-85
2022/10/22 01:59:29;;;;;;;;;;;14.30;99.90;;;;;;4951467;28;19981;-86
2022/10/22 02:01:54;;;;;;;;;;;14.30;99.90;;;;;;5041669;28;19912;-86
2022/10/22 02:04:28;;;;;;;;;;;14.20;99.90;;;;;;5031313;28;19913;-86
2022/10/22 02:06:55;;;;;;;;;;;14.20;99.90;;;;;;5031091;28;19984;-83
2022/10/22 02:09:23;;;;;;;;;;;14.20;99.90;;;;;;5031022;28;19912;-85
2022/10/22 02:11:49;;;;;;;;;;;14.20;99.90;;;;;;5030941;28;20304;-85
2022/10/22 02:14:15;;;;;;;;;;;14.20;99.90;;;;;;5049606;28;19996;-85
2022/10/22 02:16:43;;;;;;;;;;;14.20;99.90;;;;;;5049277;28;19919;-84
2022/10/22 02:19:12;;;;;;;;;;;14.20;99.90;;;;;;5053821;28;19916;-87
2022/10/22 02:21:38;;;;;;;;;;;14.10;99.90;;;;;;5051998;28;19920;-88
2022/10/22 02:24:04;;;;;;;;;;;14.10;99.90;;;;;;5031565;28;19913;-86
2022/10/22 02:26:48;;;;;;;;;;;14.10;99.90;;;;;;5031145;28;19913;-87
2022/10/22 02:29:19;;;;;;;;;;;14.00;99.90;;;;;;5049220;28;19994;-84
2022/10/22 02:31:45;;;;;;;;;;;14.00;99.90;;;;;;5050767;28;20011;-85
2022/10/22 02:34:14;;;;;;;;;;;14.00;99.90;;;;;;5047462;28;19920;-84
2022/10/22 02:36:41;;;;;;;;;;;14.00;99.90;;;;;;5049181;28;19913;-87
2022/10/22 02:39:08;;;;;;;;;;;14.00;99.90;;;;;;5048379;28;20682;-86
2022/10/22 02:41:34;;;;;;;;;;;13.90;99.90;;;;;;5049003;28;19917;-85
2022/10/22 02:44:01;;;;;;;;;;;13.80;99.90;;;;;;5030311;28;20004;-85
2022/10/22 02:46:27;;;;;;;;;;;13.90;99.90;;;;;;5033110;28;19912;-84
2022/10/22 02:48:53;;;;;;;;;;;13.90;99.90;;;;;;5030169;28;20269;-86
2022/10/22 02:51:18;;;;;;;;;;;13.90;99.90;;;;;;5048949;28;19908;-84
2022/10/22 02:53:44;;;;;;;;;;;13.80;99.90;;;;;;5048628;28;20379;-84
2022/10/22 02:56:09;;;;;;;;;;;13.70;99.90;;;;;;5048499;28;19913;-83
2022/10/22 02:58:35;;;;;;;;;;;13.80;99.90;;;;;;5048213;28;19924;-82
2022/10/22 03:01:01;;;;;;;;;;;13.90;99.90;;;;;;5048807;28;19913;-82
2022/10/22 03:03:26;;;;;;;;;;;13.80;99.90;;;;;;5048638;28;19988;-81
2022/10/22 03:05:52;;;;;;;;;;;13.80;99.90;;;;;;5031011;28;19935;-81
2022/10/22 03:08:17;;;;;;;;;;;13.80;99.90;;;;;;5052182;28;19920;-81
2022/10/22 03:10:43;;;;;;;;;;;13.80;99.90;;;;;;5030063;28;19908;-81
2022/10/22 03:13:08;;;;;;;;;;;13.80;99.90;;;;;;5047757;28;19960;-82
2022/10/22 03:15:34;;;;;;;;;;;13.70;99.90;;;;;;5030831;28;20426;-82
2022/10/22 03:17:59;;;;;;;;;;;13.60;99.90;;;;;;5048608;28;19927;-82
2022/10/22 03:20:25;;;;;;;;;;;13.60;99.90;;;;;;5048750;28;19912;-83
2022/10/22 03:22:51;;;;;;;;;;;13.60;99.90;;;;;;5031012;28;19956;-82
2022/10/22 03:25:19;;;;;;;;;;;13.60;99.90;;;;;;5048252;28;20011;-82
2022/10/22 03:27:45;;;;;;;;;;;13.60;99.90;;;;;;5047800;28;20749;-83
2022/10/22 03:30:11;;;;;;;;;;;13.50;99.90;;;;;;5048814;28;19913;-82
2022/10/22 03:32:36;;;;;;;;;;;13.50;99.90;;;;;;5030253;28;20395;-84
2022/10/22 03:35:04;;;;;;;;;;;13.40;99.90;;;;;;5048088;28;19919;-84
2022/10/22 03:37:29;;;;;;;;;;;13.40;99.90;;;;;;5029737;28;19916;-86
2022/10/22 03:39:55;;;;;;;;;;;13.30;99.90;;;;;;5030276;28;19977;-85
2022/10/22 03:42:21;;;;;;;;;;;13.30;99.90;;;;;;5047516;28;19913;-86
2022/10/22 03:44:46;;;;;;;;;;;13.30;99.90;;;;;;5046841;28;19948;-86
2022/10/22 03:47:12;;;;;;;;;;;13.20;99.90;;;;;;5047567;28;20489;-84
2022/10/22 03:49:38;;;;;;;;;;;13.20;99.90;;;;;;5052939;28;19913;-84
2022/10/22 03:52:07;;;;;;;;;;;13.10;99.90;;;;;;5047463;28;19913;-83
2022/10/22 03:54:33;;;;;;;;;;;13.10;99.90;;;;;;5047777;28;19913;-83
2022/10/22 03:56:58;;;;;;;;;;;13.10;99.90;;;;;;5047398;28;19941;-84
2022/10/22 03:59:24;;;;;;;;;;;13.10;99.90;;;;;;5054941;28;19966;-83
2022/10/22 04:01:49;;;;;;;;;;;13.10;99.90;;;;;;5029459;28;19920;-83
2022/10/22 04:04:15;;;;;;;;;;;13.00;99.90;;;;;;5047681;28;19913;-83
2022/10/22 04:06:40;;;;;;;;;;;13.00;99.90;;;;;;5047845;28;19913;-83
2022/10/22 04:09:06;;;;;;;;;;;13.00;99.90;;;;;;5047776;28;20295;-84
2022/10/22 04:11:32;;;;;;;;;;;13.00;99.90;;;;;;5047660;28;19928;-86
2022/10/22 04:13:57;;;;;;;;;;;13.00;99.90;;;;;;5031699;28;19920;-86
2022/10/22 04:16:23;;;;;;;;;;;13.10;99.90;;;;;;5047388;28;19989;-86
2022/10/22 04:18:49;;;;;;;;;;;13.10;99.90;;;;;;5029568;28;19924;-86
2022/10/22 04:21:15;;;;;;;;;;;13.10;99.90;;;;;;5047183;28;19913;-86
2022/10/22 04:23:45;;;;;;;;;;;13.10;99.90;;;;;;5047378;28;19920;-87
2022/10/22 04:26:10;;;;;;;;;;;13.00;99.90;;;;;;5042540;28;20367;-83
2022/10/22 04:28:36;;;;;;;;;;;13.00;99.90;;;;;;5028963;28;19913;-83
2022/10/22 04:31:11;;;;;;;;;;;13.00;99.90;;;;;;5046834;28;19913;-85
2022/10/22 04:33:37;;;;;;;;;;;13.00;99.90;;;;;;5040657;28;19923;-84
2022/10/22 04:36:13;;;;;;;;;;;13.00;99.90;;;;;;5028461;28;19916;-81
2022/10/22 04:38:39;;;;;;;;;;;12.90;99.90;;;;;;5030271;28;19913;-82
2022/10/22 04:41:13;;;;;;;;;;;12.90;99.90;;;;;;5030954;28;20728;-83
2022/10/22 04:43:39;;;;;;;;;;;12.80;99.90;;;;;;5032521;28;19952;-84
2022/10/22 04:46:07;;;;;;;;;;;12.80;99.90;;;;;;5050959;28;19913;-83
2022/10/22 04:48:43;;;;;;;;;;;12.70;99.90;;;;;;5033169;28;19920;-83
2022/10/22 04:51:10;;;;;;;;;;;12.70;99.90;;;;;;5050825;28;20030;-83
2022/10/22 04:53:35;;;;;;;;;;;12.70;99.90;;;;;;5032919;28;19944;-81
2022/10/22 04:56:30;;;;;;;;;;;12.60;99.90;;;;;;5057076;28;19948;-82
2022/10/22 04:58:57;;;;;;;;;;;12.60;99.90;;;;;;5030144;28;19916;-83
2022/10/22 05:01:24;;;;;;;;;;;12.70;99.90;;;;;;5032004;28;19920;-83
2022/10/22 05:03:52;;;;;;;;;;;12.60;99.90;;;;;;5032126;28;19917;-83
2022/10/22 05:06:19;;;;;;;;;;;12.50;99.90;;;;;;5050056;28;19913;-83
2022/10/22 05:08:45;;;;;;;;;;;12.50;99.90;;;;;;5032486;28;19921;-81
2022/10/22 05:11:11;;;;;;;;;;;12.40;99.90;;;;;;5029714;28;19926;-83
2022/10/22 05:13:36;;;;;;;;;;;12.40;99.90;;;;;;5050004;28;20284;-84
2022/10/22 05:16:02;;;;;;;;;;;12.40;99.90;;;;;;5050329;28;20386;-82
2022/10/22 05:18:27;;;;;;;;;;;12.40;99.90;;;;;;5049905;28;20307;-83
2022/10/22 05:20:53;;;;;;;;;;;12.30;99.90;;;;;;5050469;28;20418;-82
2022/10/22 05:23:18;;;;;;;;;;;12.20;99.90;;;;;;5053932;28;20626;-82
2022/10/22 05:25:44;;;;;;;;;;;12.20;99.90;;;;;;5049608;28;19924;-82
2022/10/22 05:28:09;;;;;;;;;;;12.30;99.90;;;;;;5049608;28;19917;-83
2022/10/22 05:30:35;;;;;;;;;;;12.30;99.90;;;;;;5050026;28;20008;-83
2022/10/22 05:33:00;;;;;;;;;;;12.40;99.90;;;;;;5054404;28;20526;-83
2022/10/22 05:35:26;;;;;;;;;;;12.40;99.90;;;;;;5055136;28;19913;-84
2022/10/22 05:37:54;;;;;;;;;;;12.40;99.90;;;;;;5048530;28;19923;-86
2022/10/22 05:40:20;;;;;;;;;;;12.40;99.90;;;;;;5056139;28;19913;-86
2022/10/22 05:42:45;;;;;;;;;;;12.40;99.90;;;;;;5052595;28;19913;-85
2022/10/22 05:45:11;;;;;;;;;;;12.40;99.90;;;;;;5050468;28;19959;-85
2022/10/22 05:47:40;;;;;;;;;;;12.40;99.90;;;;;;5049446;28;19955;-84
2022/10/22 05:50:05;;;;;;;;;;;12.50;99.90;;;;;;5030605;28;19951;-86
2022/10/22 05:52:31;;;;;;;;;;;12.50;99.90;;;;;;5049664;28;19948;-86
2022/10/22 05:55:04;;;;;;;;;;;12.40;99.90;;;;;;5031830;28;20036;-85
2022/10/22 05:57:29;;;;;;;;;;;12.30;99.90;;;;;;5034216;28;19923;-85
2022/10/22 05:59:55;;;;;;;;;;;12.20;99.90;;;;;;5049339;28;19913;-88
2022/10/22 06:02:21;;;;;;;;;;;12.20;99.90;;;;;;5035774;28;19987;-86
2022/10/22 06:04:46;;;;;;;;;;;12.20;99.90;;;;;;5055165;28;19921;-84
2022/10/22 06:07:13;;;;;;;;;;;12.20;99.90;;;;;;5048481;28;19924;-84
2022/10/22 06:09:38;;;;;;;;;;;12.20;99.90;;;;;;5048831;28;19979;-82
2022/10/22 06:12:07;;;;;;;;;;;12.20;99.90;;;;;;5048397;28;19921;-82
2022/10/22 06:14:33;;;;;;;;;;;12.20;99.90;;;;;;5047721;28;19913;-82
2022/10/22 06:16:59;;;;;;;;;;;12.20;99.90;;;;;;5047759;28;19938;-83
2022/10/22 06:19:25;;;;;;;;;;;12.10;99.90;;;;;;5033610;28;19924;-83
2022/10/22 06:21:51;;;;;;;;;;;12.10;99.90;;;;;;5047889;28;19912;-83
2022/10/22 06:24:17;;;;;;;;;;;12.00;99.90;;;;;;5048264;28;19919;-82
2022/10/22 06:26:42;;;;;;;;;;;12.20;99.90;;;;;;5031061;28;19963;-83
2022/10/22 06:29:08;;;;;;;;;;;12.10;99.90;;;;;;5035980;28;19913;-84
2022/10/22 06:31:37;;;;;;;;;;;12.10;99.90;;;;;;5019132;28;19913;-84
2022/10/22 06:34:03;;;;;;;;;;;12.10;99.90;;;;;;5032657;28;20361;-83
2022/10/22 06:36:29;;;;;;;;;;;12.00;99.90;;;;;;5016429;28;19959;-86
2022/10/22 06:38:55;;;;;;;;;;;11.90;99.90;;;;;;5015041;28;20004;-86
2022/10/22 06:41:21;;;;;;;;;;;12.00;99.90;;;;;;5033118;28;19913;-87
2022/10/22 06:43:47;;;;;;;;;;;12.00;99.90;;;;;;5045289;28;19919;-87
2022/10/22 06:46:16;;;;;;;;;;;12.00;99.90;;;;;;5051059;28;20386;-86
2022/10/22 06:48:42;;;;;;;;;;;12.10;99.90;;;;;;5049188;28;20489;-87
2022/10/22 06:51:11;;;;;;;;;;;12.10;99.90;;;;;;5048489;28;19913;-85
2022/10/22 06:53:37;;;;;;;;;;;12.70;99.90;;;;;;5047929;28;19963;-85
2022/10/22 06:56:10;;;;;;;;;;;13.50;99.90;;;;;;5029889;28;19994;-91
2022/10/22 06:58:35;;;;;;;;;;;14.10;99.90;;;;;;5042003;28;19924;-83
2022/10/22 07:01:05;;;;;;;;;;;14.50;99.90;;;;;;5048291;28;20004;-82
2022/10/22 07:03:31;;;;;;;;;;;14.70;99.90;;;;;;5045448;28;19988;-82
2022/10/22 07:06:00;;;;;;;;;;;15.00;99.90;;;;;;5048140;28;19956;-84
2022/10/22 07:08:26;;;;;;;;;;;15.10;99.90;;;;;;5029891;28;20459;-86
2022/10/22 07:10:51;;;;;;;;;;;15.40;99.90;;;;;;5030289;28;19913;-88
2022/10/22 07:13:24;;;;;;;;;;;15.70;99.90;;;;;;5030816;28;20756;-88
2022/10/22 07:15:54;;;;;;;;;;;15.80;99.90;;;;;;5039986;28;19920;-86
2022/10/22 07:22:08;;;;;;;;;;;16.20;99.90;;;;;;4986372;28;20428;-88
2022/10/22 07:24:33;;;;;;;;;;;16.10;99.90;;;;;;4970505;28;20439;-89
2022/10/22 07:26:59;;;;;;;;;;;16.30;99.90;;;;;;5049221;28;19964;-91
2022/10/22 07:29:25;;;;;;;;;;;16.60;99.90;;;;;;5035069;28;19966;-91
2022/10/22 07:31:50;;;;;;;;;;;16.80;99.90;;;;;;5049398;28;19913;-90
2022/10/22 07:34:16;;;;;;;;;;;17.20;99.90;;;;;;5036925;28;19913;-89
2022/10/22 07:36:41;;;;;;;;;;;17.40;99.90;;;;;;5042615;28;19917;-90
2022/10/22 07:39:07;;;;;;;;;;;17.50;99.90;;;;;;5045539;28;19920;-89
2022/10/22 07:41:33;;;;;;;;;;;17.60;99.90;;;;;;5029533;28;19924;-87
2022/10/22 07:43:58;;;;;;;;;;;17.30;99.90;;;;;;5049366;28;19986;-89
2022/10/22 07:46:35;;;;;;;;;;;17.40;99.90;;;;;;5046262;28;19923;-91
2022/10/22 07:49:12;;;;;;;;;;;17.80;99.90;;;;;;5048746;28;20007;-88
2022/10/22 07:52:00;;;;;;;;;;;17.70;99.90;;;;;;5059731;28;20310;-89
2022/10/22 07:54:26;;;;;;;;;;;18.00;99.90;;;;;;5028844;28;20365;-88
2022/10/22 07:56:51;;;;;;;;;;;18.20;99.90;;;;;;5047733;28;19917;-88
2022/10/22 07:59:17;;;;;;;;;;;18.40;99.90;;;;;;5051094;28;19923;-86
2022/10/22 08:02:05;;;;;;;;;;;18.30;99.90;;;;;;5033571;28;19917;-91
2022/10/22 08:20:46;;;;;;;;;;;;;;;;;;;;;
2022/10/22 08:33:27;;;;;;;;;;;;;;;;;;;;;
2022/10/22 08:58:17;;;;;;;;;;;;;;;;;;;;;
2022/10/22 09:04:54;;;;;;;;;;;;;;;;;;;;;
2022/10/22 09:08:03;;;;;;;;;;;;;;;;;;;;;
2022/10/22 09:10:34;;;;;;;;;;;21.80;99.90;;;;;;4910085;29;20050;-89
2022/10/22 09:13:02;;;;;;;;;;;21.70;99.90;;;;;;4932012;29;19919;-89
2022/10/22 09:18:48;;;;;;;;;;;21.10;99.90;;;;;;4917106;29;20633;-91
2022/10/22 09:24:44;;;;;;;;;;;20.40;99.90;;;;;;4894754;29;19938;-89
2022/10/22 09:37:18;;;;;;;;;;;;;;;;;;;;;
2022/10/22 10:18:27;;;;;;;;;;;20.80;99.90;;;;;;5018256;28;19947;-90
2022/10/22 10:21:13;;;;;;;;;;;20.90;99.90;;;;;;5027840;28;20420;-87
2022/10/22 10:23:41;;;;;;;;;;;20.90;99.90;;;;;;5032616;28;19948;-86
2022/10/22 10:26:07;;;;;;;;;;;21.00;99.90;;;;;;5048665;28;19920;-86
2022/10/22 10:28:36;;;;;;;;;;;21.00;99.90;;;;;;5041281;28;19916;-85
2022/10/22 10:31:38;;;;;;;;;;;21.40;99.90;;;;;;5050289;28;19917;-94
2022/10/22 10:34:23;;;;;;;;;;;21.30;99.90;;;;;;4974281;28;19978;-94
2022/10/22 10:37:11;;;;;;;;;;;21.50;98.70;;;;;;5022909;28;19972;-89
2022/10/22 10:39:40;;;;;;;;;;;21.40;96.40;;;;;;5042506;28;19921;-92
2022/10/22 10:42:11;;;;;;;;;;;21.50;98.00;;;;;;5021394;28;19917;-86
2022/10/22 10:44:37;;;;;;;;;;;21.50;96.40;;;;;;5023747;28;19917;-86
2022/10/22 10:47:02;;;;;;;;;;;21.40;97.00;;;;;;5047683;28;19913;-86
2022/10/22 10:49:30;;;;;;;;;;;21.50;96.30;;;;;;5047664;28;19917;-88
2022/10/22 10:52:14;;;;;;;;;;;21.50;96.00;;;;;;5027479;28;20390;-90
2022/10/22 10:54:46;;;;;;;;;;;21.40;93.90;;;;;;5048280;28;19916;-88
2022/10/22 10:57:23;;;;;;;;;;;21.50;94.20;;;;;;5028094;28;19913;-89
2022/10/22 10:59:58;;;;;;;;;;;21.40;93.50;;;;;;5041490;28;19913;-92
2022/10/22 11:02:26;;;;;;;;;;;21.50;93.10;;;;;;5046645;28;19931;-88
2022/10/22 11:04:58;;;;;;;;;;;21.50;94.40;;;;;;5029881;28;19971;-90
2022/10/22 11:07:47;;;;;;;;;;;21.50;91.50;;;;;;5033089;28;20012;-87
2022/10/22 11:10:48;;;;;;;;;;;21.50;91.80;;;;;;5030169;28;19924;-89
2022/10/22 11:13:42;;;;;;;;;;;21.40;90.80;;;;;;4985549;28;20656;-91
2022/10/22 11:16:53;;;;;;;;;;;21.50;90.90;;;;;;5049038;28;19916;-90
2022/10/22 11:19:33;;;;;;;;;;;21.50;87.30;;;;;;5039466;28;19925;-89
2022/10/22 11:22:25;;;;;;;;;;;21.50;88.80;;;;;;5049648;28;19917;-90
2022/10/22 11:24:53;;;;;;;;;;;21.50;86.70;;;;;;5048672;28;20427;-89
2022/10/22 11:27:37;;;;;;;;;;;21.30;86.40;;;;;;5052808;28;19951;-88
2022/10/22 11:30:10;;;;;;;;;;;21.30;83.00;;;;;;5057550;28;20383;-91
2022/10/22 11:32:37;;;;;;;;;;;21.30;83.70;;;;;;5054465;28;19938;-89
2022/10/22 11:35:05;;;;;;;;;;;21.30;81.30;;;;;;5040331;28;19960;-85
2022/10/22 11:40:36;;;;;;;;;;;21.30;76.70;;;;;;5052773;28;20351;-86
2022/10/22 11:43:24;;;;;;;;;;;21.30;79.80;;;;;;5052935;28;19959;-85
2022/10/22 11:45:55;;;;;;;;;;;21.30;75.10;;;;;;5042686;28;19934;-85
2022/10/22 11:48:25;;;;;;;;;;;21.30;72.60;;;;;;5039740;28;20698;-88
2022/10/22 11:50:59;;;;;;;;;;;21.30;72.40;;;;;;5062323;28;19920;-95
2022/10/22 11:53:24;;;;;;;;;;;21.30;73.50;;;;;;5046376;28;19909;-94
2022/10/22 11:55:51;;;;;;;;;;;21.40;75.20;;;;;;5045296;28;19912;-94
2022/10/22 11:58:26;;;;;;;;;;;21.40;77.50;;;;;;5039942;28;20058;-92
2022/10/22 12:00:52;;;;;;;;;;;21.50;75.60;;;;;;5046510;28;20339;-91
2022/10/22 12:03:22;;;;;;;;;;;21.50;72.80;;;;;;5052549;28;19917;-92
2022/10/22 12:06:10;;;;;;;;;;;21.60;73.10;;;;;;5037643;28;19913;-91
2022/10/22 12:09:01;;;;;;;;;;;21.60;71.90;;;;;;5048313;28;20372;-90
2022/10/22 12:11:56;;;;;;;;;;;21.60;75.60;;;;;;5050505;28;19977;-89
2022/10/22 12:14:26;;;;;;;;;;;21.60;75.90;;;;;;4986672;28;19921;-93
2022/10/22 12:16:56;;;;;;;;;;;21.70;72.50;;;;;;5034235;28;19920;-95
2022/10/22 12:19:22;;;;;;;;;;;21.70;74.20;;;;;;5048488;28;20404;-94
2022/10/22 12:21:52;;;;;;;;;;;21.70;74.60;;;;;;5034136;28;19913;-95
2022/10/22 12:24:39;;;;;;;;;;;21.60;73.90;;;;;;5025895;28;20649;-91
2022/10/22 12:33:54;;;;;;;;;;;21.70;72.70;;;;;;5051012;28;20379;-95
2022/10/22 12:36:19;;;;;;;;;;;21.80;78.40;;;;;;5026579;28;19986;-94
2022/10/22 12:38:48;;;;;;;;;;;21.90;78.30;;;;;;5016861;28;19972;-93
2022/10/22 12:41:17;;;;;;;;;;;21.90;77.60;;;;;;4995987;28;19975;-90
2022/10/22 12:43:45;;;;;;;;;;;22.00;74.90;;;;;;5008260;28;20448;-92
2022/10/22 12:46:30;;;;;;;;;;;22.10;74.60;;;;;;5001020;28;19925;-93
2022/10/22 12:55:09;;;;;;;;;;;;;;;;;;;;;
2022/10/22 12:57:37;;;;;;;;;;;22.00;77.20;;;;;;5008463;28;20404;-92
2022/10/22 13:00:02;;;;;;;;;;;21.90;77.70;;;;;;4997138;28;19991;-93
2022/10/22 13:02:31;;;;;;;;;;;21.70;77.70;;;;;;4997358;28;20739;-90
2022/10/22 13:05:22;;;;;;;;;;;21.80;74.40;;;;;;5019736;28;19917;-91
2022/10/22 13:07:52;;;;;;;;;;;21.90;77.80;;;;;;5015527;28;20004;-88
2022/10/22 13:16:32;;;;;;;;;;;21.90;74.20;;;;;;4952635;28;20009;-92
2022/10/22 13:18:57;;;;;;;;;;;22.10;73.80;;;;;;4945927;28;20026;-92
2022/10/22 13:21:36;;;;;;;;;;;22.00;73.20;;;;;;4955045;28;19961;-90
2022/10/22 13:24:42;;;;;;;;;;;22.00;74.60;;;;;;4939166;29;19921;-92
2022/10/22 13:28:23;;;;;;;;;;;22.10;78.90;;;;;;4895613;29;20018;-94
2022/10/22 13:30:30;;;;;;;;;;;22.30;76.50;;;;;;4901464;28;20746;-92
2022/10/22 13:32:57;;;;;;;;;;;22.20;74.80;;;;;;5002659;28;20482;-89
2022/10/22 13:38:26;;;;;;;;;;;22.20;73.60;;;;;;5031065;28;20018;-91
2022/10/22 13:40:52;;;;;;;;;;;22.20;73.90;;;;;;5032151;28;19917;-94
2022/10/22 13:43:18;;;;;;;;;;;22.20;76.80;;;;;;5007850;28;20442;-93
2022/10/22 13:45:45;;;;;;;;;;;22.20;72.50;;;;;;5018801;28;19918;-93
2022/10/22 13:48:14;;;;;;;;;;;22.20;74.40;;;;;;5020859;28;19917;-96
2022/10/22 13:50:43;;;;;;;;;;;22.20;75.70;;;;;;5017385;28;19920;-95
2022/10/22 13:53:16;;;;;;;;;;;22.30;75.80;;;;;;5019140;28;19962;-96
2022/10/22 13:55:44;;;;;;;;;;;22.30;73.70;;;;;;5014086;28;19960;-89
2022/10/22 13:58:13;;;;;;;;;;;22.40;72.90;;;;;;5020757;28;19975;-87
2022/10/22 14:00:43;;;;;;;;;;;22.40;72.90;;;;;;5023819;28;19917;-87
2022/10/22 14:03:17;;;;;;;;;;;22.40;75.10;;;;;;5013311;28;19913;-87
2022/10/22 14:05:44;;;;;;;;;;;22.30;72.80;;;;;;5023147;28;20792;-89
2022/10/22 14:08:11;;;;;;;;;;;22.20;74.10;;;;;;5014657;28;19986;-95
2022/10/22 14:10:37;;;;;;;;;;;22.00;75.20;;;;;;5013032;28;19936;-87
2022/10/22 14:13:05;;;;;;;;;;;21.90;74.10;;;;;;5005326;28;19917;-93
2022/10/22 14:15:33;;;;;;;;;;;21.80;74.10;;;;;;5039008;28;19917;-96
2022/10/22 14:17:59;;;;;;;;;;;21.80;73.90;;;;;;5030144;28;19943;-95
2022/10/22 14:20:26;;;;;;;;;;;21.70;74.80;;;;;;5029297;28;19947;-88
2022/10/22 14:22:52;;;;;;;;;;;21.60;74.90;;;;;;5050909;28;19917;-86
2022/10/22 14:25:24;;;;;;;;;;;21.70;76.20;;;;;;5053805;28;19982;-92
2022/10/22 14:27:50;;;;;;;;;;;21.70;74.30;;;;;;5043034;28;19991;-92
2022/10/22 14:30:17;;;;;;;;;;;21.60;74.70;;;;;;5037647;28;19909;-96
2022/10/22 14:32:42;;;;;;;;;;;21.50;75.80;;;;;;5038409;28;19909;-94
2022/10/22 14:35:13;;;;;;;;;;;21.50;76.20;;;;;;5035791;28;19921;-95
2022/10/22 14:37:38;;;;;;;;;;;21.50;75.30;;;;;;5032285;28;20461;-93
2022/10/22 14:40:05;;;;;;;;;;;21.40;77.10;;;;;;5027332;28;19963;-95
2022/10/22 14:42:30;;;;;;;;;;;21.40;75.50;;;;;;5037742;28;19948;-94
2022/10/22 14:44:56;;;;;;;;;;;21.40;76.80;;;;;;5040401;28;19919;-95
2022/10/22 14:47:21;;;;;;;;;;;21.30;76.90;;;;;;5035705;28;20670;-95
2022/10/22 14:49:47;;;;;;;;;;;21.40;76.60;;;;;;5037977;28;19913;-94
2022/10/22 14:52:12;;;;;;;;;;;21.40;76.30;;;;;;5035388;28;19917;-95
2022/10/22 14:54:38;;;;;;;;;;;21.40;76.40;;;;;;5036565;28;19955;-94
2022/10/22 14:57:04;;;;;;;;;;;21.30;77.70;;;;;;5016651;28;19949;-93
2022/10/22 14:59:30;;;;;;;;;;;21.40;77.50;;;;;;5032539;28;19919;-91
2022/10/22 15:01:55;;;;;;;;;;;21.50;77.10;;;;;;5036657;28;19912;-93
2022/10/22 15:04:21;;;;;;;;;;;21.40;77.40;;;;;;5030062;28;19940;-94
2022/10/22 15:06:47;;;;;;;;;;;21.30;77.90;;;;;;5027583;28;19913;-93
2022/10/22 15:09:13;;;;;;;;;;;21.30;77.90;;;;;;5032523;28;19916;-94
2022/10/22 15:11:38;;;;;;;;;;;21.40;76.70;;;;;;5031010;28;19959;-94
2022/10/22 15:14:04;;;;;;;;;;;21.40;77.10;;;;;;5032089;28;20372;-93
2022/10/22 15:16:29;;;;;;;;;;;21.40;76.10;;;;;;5033950;28;19913;-95
2022/10/22 15:18:56;;;;;;;;;;;21.40;77.70;;;;;;5029534;28;19925;-93
2022/10/22 15:21:22;;;;;;;;;;;21.30;77.30;;;;;;5034154;28;19913;-92
2022/10/22 15:23:48;;;;;;;;;;;21.40;74.40;;;;;;5033329;28;19913;-93
2022/10/22 15:26:14;;;;;;;;;;;21.30;73.90;;;;;;5029502;28;19924;-94
2022/10/22 15:28:40;;;;;;;;;;;21.30;75.30;;;;;;5035154;28;19912;-94
2022/10/22 15:31:06;;;;;;;;;;;21.30;74.80;;;;;;5029063;28;19917;-93
2022/10/22 15:33:32;;;;;;;;;;;21.20;74.50;;;;;;5029937;28;19952;-89
2022/10/22 15:35:57;;;;;;;;;;;21.10;74.00;;;;;;5033728;28;19971;-94
2022/10/22 15:38:30;;;;;;;;;;;21.20;73.00;;;;;;5031468;28;19917;-96
2022/10/22 15:41:00;;;;;;;;;;;21.10;73.90;;;;;;5034275;28;19944;-91
2022/10/22 15:43:25;;;;;;;;;;;21.10;73.90;;;;;;5034409;28;20076;-92
2022/10/22 15:46:04;;;;;;;;;;;21.00;73.90;;;;;;5050542;28;20468;-90
2022/10/22 15:48:33;;;;;;;;;;;21.00;74.00;;;;;;5044720;28;19919;-93
2022/10/22 15:50:59;;;;;;;;;;;20.90;74.50;;;;;;5033544;28;19923;-93
2022/10/22 15:53:24;;;;;;;;;;;20.80;74.90;;;;;;5050043;28;20677;-89
2022/10/22 15:55:50;;;;;;;;;;;20.80;74.80;;;;;;5048209;28;19916;-89
2022/10/22 15:58:25;;;;;;;;;;;20.80;74.20;;;;;;5018701;28;19928;-85
2022/10/22 16:00:55;;;;;;;;;;;20.80;74.50;;;;;;5048749;28;19924;-87
2022/10/22 16:06:47;;;;;;;;;;;20.80;73.80;;;;;;5037339;28;19956;-82
2022/10/22 16:09:14;;;;;;;;;;;20.70;74.00;;;;;;5030292;28;19919;-86
2022/10/22 16:11:56;;;;;;;;;;;;;;;;;;;;;
2022/10/22 16:14:27;;;;;;;;;;;20.70;74.20;;;;;;5047664;28;19931;-87
2022/10/22 16:16:55;;;;;;;;;;;20.70;74.00;;;;;;5035309;28;19941;-85
2022/10/22 16:19:22;;;;;;;;;;;20.60;74.70;;;;;;5018372;28;20376;-85
2022/10/22 16:21:49;;;;;;;;;;;20.40;75.80;;;;;;5043519;28;19916;-86
2022/10/22 16:24:17;;;;;;;;;;;20.30;77.90;;;;;;5030154;28;19913;-83
2022/10/22 16:26:43;;;;;;;;;;;20.20;80.80;;;;;;5046921;28;20757;-83
2022/10/22 16:29:11;;;;;;;;;;;20.10;82.60;;;;;;5029393;28;19912;-82
2022/10/22 16:31:37;;;;;;;;;;;20.10;83.80;;;;;;5021035;28;19917;-83
2022/10/22 16:34:03;;;;;;;;;;;20.00;84.70;;;;;;5050212;28;19962;-82
2022/10/22 16:36:28;;;;;;;;;;;19.90;85.30;;;;;;5050889;28;19913;-82
2022/10/22 16:38:55;;;;;;;;;;;19.90;85.60;;;;;;5048762;28;19921;-82
2022/10/22 16:41:21;;;;;;;;;;;19.90;86.00;;;;;;5032990;28;19951;-82
2022/10/22 16:43:48;;;;;;;;;;;19.70;87.00;;;;;;5056368;28;19912;-85
2022/10/22 16:46:15;;;;;;;;;;;19.60;88.60;;;;;;5039847;28;19914;-82
2022/10/22 16:48:44;;;;;;;;;;;19.50;89.00;;;;;;5026590;28;20007;-82
2022/10/22 16:51:12;;;;;;;;;;;19.40;90.10;;;;;;5050665;28;19917;-84
2022/10/22 16:53:37;;;;;;;;;;;19.30;90.40;;;;;;5033148;28;19922;-82
2022/10/22 16:56:03;;;;;;;;;;;19.30;91.00;;;;;;5032818;28;19917;-84
2022/10/22 16:58:29;;;;;;;;;;;19.30;91.00;;;;;;5033280;28;20004;-83
2022/10/22 17:00:54;;;;;;;;;;;19.20;90.90;;;;;;5050585;28;19924;-87